Novaya Igirma, Russia
Current Conditions -  °F | °C
As of 3:30 AM on Sunday 26 Oct 2014 (Local Time) from UIBB Reporting Station
Scattered Clouds Scattered Clouds  
Wind Chill:   Ceiling: Unl
Heat Index: 18°   Visibility: 3mi
Dew Point:   Wind: 7mph
Humidity: 68%   Direction: 110°ESE
Pressure: 30.09"   Gusts: NA
Location:  57.14°N, 103.91°E
Report Text: UIBB 251930Z 11003MPS P5000 SCT200 M08/M13 Q1019 NOSIG RMKQFE721/0961 30850540
Loading
Personal Weather Stations






























Interactive Weather Map
Tropical Storm Tracking
New forecast layout! Learn more

10-Day Weather Forecast

Advertisements
Track Severe Weather on mobile